Courtney, North Carolina
Current Conditions -  °F | °C
As of 6:54 PM on Sunday 23 Nov 2014 (Local Time) from KINT Reporting Station
Moderate Rain Moderate Rain  
Wind Chill: 45°   Ceiling: 300
Heat Index: 48°   Visibility: 2.5mi
Dew Point: 46°   Wind: 6mph
Humidity: 93%   Direction: NA
Pressure: 29.88"   Gusts: NA
Location:  36.1267°N, 80.6582°W
Report Text: KINT 232354Z VRB05KT 2 1/2SM RA BR OVC003 09/08 A2988 RMK AO2 SLP118 P0010 60019 T00890078 10094 20078 56023
Loading
Personal Weather Stations






























Interactive Weather Map New forecast layout! Learn more

10-Day Weather Forecast

Advertisements
Track Severe Weather on mobile